Ocracoke, NC

4:58 AM EST on December 05, 2016 (GMT -0500)
The Ocracoke Harbor Inn/Silver Lake | | Change Station

Elev 15 ft 35.11 °N, 75.98 °W | Updated 23 seconds ago

Light Rain
Light Rain Mist
62.8 °F
Feels Like 62.8 °F
N
7.0
Wind Variable Wind from WSW
Gusts 11.0 mph

Today
High -- | Low -- °F
--% Chance of Precip.
Yesterday
High -- | Low -- °F
Precip. -- in
Pressure 29.94 in
Visibility 2.0 miles
Clouds Scattered Clouds 1000 ft
Mostly Cloudy 2000 ft
Overcast 5500 ft
Dew Point 53 °F
Humidity 71%
Rainfall 0.56 in
Snow Depth Not available.
6:57 AM 4:51 PM
Waxing Crescent, 30% visible
METAR KHSE 050951Z AUTO 23011G18KT 2SM -RA BR SCT010 BKN020 OVC055 18/17 A2994 RMK AO2 SLP137 P0014 T01780172 TSNO $
Pressure 29.94 in
Visibility 2.0 miles
Clouds Scattered Clouds 1000 ft
Mostly Cloudy 2000 ft
Overcast 5500 ft
Dew Point 53 °F
Humidity 71%
Rainfall 0.56 in
Snow Depth Not available.
6:57 AM 4:51 PM
Waxing Crescent, 30% visible
METAR KHSE 050951Z AUTO 23011G18KT 2SM -RA BR SCT010 BKN020 OVC055 18/17 A2994 RMK AO2 SLP137 P0014 T01780172 TSNO $

10-Day Weather Forecast

Almanac

Astronomy

Dec. 05, 2016 Rise Set
Actual Time
Civil Twilight
Nautical Twilight
Astronomical Twilight
Moon
Length of Visible Light
Length of Day
Tomorrow will be .
, % of the Moon is Illuminated

Today's Extremes

State Highs State Lows

Community

WunderPhotos

Upload Photos

1,955,775 photos uploaded!

WunderBlog® & News

Nearby

Air Quality

  Air Quality AQ Index Pollutant
Not available.

Snow Depth

Station Depth Elevation

Earthquake Activity

City Distance Mag. Time & Date
Minimum magnitude displayed is 2.5.

Coastal Water Temperatures

Place Temperature

Stations

Nearby Weather Stations

Station Location Temp. Windchill Dew Point Humidity Wind Precip. Elev Updated Type
                   

Watches & Warnings

There are currently no watches in effect.